»·PEaware :: N751LU 1L1-2O7

N751LU :: 1L1-2O7

FLIGHT INFORMATION

Flight Status: Arrived
Operator: Privately registered:
United States
More flights under this callsign
Pilot: Ewen S. (18928)
Aircraft: ECLIPSE 500
(EA50)
More flights by this aircraft type
Origin: 1L1 Lincoln Co
United States
Destination: 2O7 Independence
United States
More flights between these airports :: More routes between these airports
Route: ILC V244 TPH V135 TEZUM BIH
File this flight plan on PilotEdge
Remarks: / G
Altitude:
(Current/Filed)
16,500ft
Speed:
(Current/Filed)
255kts
Departed: 05-Aug-18 05:15 AM
Arrived: 05-Aug-18 05:59 AM
Distance/Time
Traveled:
190nm/0:44
Distance/Time
To Go:
Arrived

Flight Plot

Page will automatically refresh every two minutes.

Flight plan parsing failed; only flown route is shown


Map Options




Map Legend


Flown Route
Filed Route
Departure Airport
Arrival Airport
Navaid (VOR, NDB)
Fix

Horizontal Profiles

Position Reports

Time Latitude Longitude Heading Altitude Ground
Speed
05-Aug-18 05:09 37.793832 -114.421173 181 4831ft 0kts
05-Aug-18 05:10 37.793832 -114.421173 181 4831ft 0kts
05-Aug-18 05:11 37.793832 -114.421173 181 4831ft 0kts
05-Aug-18 05:12 37.793832 -114.421173 181 4831ft 0kts
05-Aug-18 05:13 37.793832 -114.421173 181 4831ft 0kts
05-Aug-18 05:14 37.793832 -114.421173 181 4831ft 0kts
05-Aug-18 05:15 37.793802 -114.421097 87 4831ft 0kts
05-Aug-18 05:16 37.788204 -114.420804 180 4831ft 89kts
05-Aug-18 05:17 37.754786 -114.412470 140 6463ft 150kts
05-Aug-18 05:18 37.769324 -114.372916 350 7947ft 216kts
05-Aug-18 05:19 37.823018 -114.395326 344 10210ft 221kts
05-Aug-18 05:20 37.884348 -114.405737 352 12123ft 237kts
05-Aug-18 05:21 37.956072 -114.407707 356 13409ft 268kts
05-Aug-18 05:22 38.030804 -114.405558 357 15004ft 275kts
05-Aug-18 05:23 38.104598 -114.402093 357 16443ft 281kts
05-Aug-18 05:24 38.186227 -114.397867 357 16597ft 313kts
05-Aug-18 05:25 38.233587 -114.457069 272 16608ft 270kts
05-Aug-18 05:26 38.234705 -114.553702 266 16606ft 280kts
05-Aug-18 05:27 38.230201 -114.650318 263 16605ft 284kts
05-Aug-18 05:28 38.223899 -114.746002 262 16610ft 287kts
05-Aug-18 05:29 38.223064 -114.757823 262 16610ft 287kts
05-Aug-18 05:30 38.041305 -116.918195 264 16575ft 291kts
05-Aug-18 05:31 38.031482 -117.019998 257 16568ft 291kts
05-Aug-18 05:32 37.993804 -117.107290 241 16571ft 289kts
05-Aug-18 05:33 37.953145 -117.193364 240 15894ft 277kts
05-Aug-18 05:34 37.913966 -117.274923 240 14776ft 269kts
05-Aug-18 05:35 37.876656 -117.352074 239 13710ft 268kts
05-Aug-18 05:36 37.837662 -117.432402 239 12605ft 270kts
05-Aug-18 05:37 37.798702 -117.512365 239 11510ft 272kts
05-Aug-18 05:38 37.760125 -117.591325 240 10587ft 269kts
05-Aug-18 05:39 37.723928 -117.665330 239 10549ft 248kts
05-Aug-18 05:40 37.688769 -117.736932 239 10520ft 241kts
05-Aug-18 05:41 37.653731 -117.808011 239 10490ft 238kts
05-Aug-18 05:42 37.619046 -117.878353 239 10474ft 244kts
05-Aug-18 05:43 37.580722 -117.955757 238 10471ft 275kts
05-Aug-18 05:44 37.539623 -118.038369 238 10468ft 286kts
05-Aug-18 05:45 37.497352 -118.122899 236 10543ft 286kts
05-Aug-18 05:46 37.457034 -118.198537 240 11478ft 268kts
05-Aug-18 05:47 37.420402 -118.275838 239 10711ft 253kts
05-Aug-18 05:48 37.383293 -118.346785 217 10164ft 245kts
05-Aug-18 05:49 37.315520 -118.343090 173 9392ft 251kts
05-Aug-18 05:50 37.245023 -118.325995 170 8576ft 267kts
05-Aug-18 05:51 37.171969 -118.306053 169 7750ft 269kts
05-Aug-18 05:52 37.101680 -118.286231 169 6920ft 246kts
05-Aug-18 05:53 37.039661 -118.268682 168 6186ft 225kts
05-Aug-18 05:54 36.980222 -118.254281 176 5352ft 224kts
05-Aug-18 05:55 36.918993 -118.249121 176 4694ft 222kts
05-Aug-18 05:56 36.860861 -118.240006 166 4686ft 209kts
05-Aug-18 05:57 36.807677 -118.217504 160 4689ft 186kts
05-Aug-18 05:58 36.767802 -118.197731 121 4786ft 136kts
05-Aug-18 05:59 36.791951 -118.192400 331 4298ft 132kts
05-Aug-18 06:00 36.820520 -118.207120 332 3911ft 40kts

Navigation Log

Ident Type
Flight plan parsing failed, navigation log unavailable